Terminal Aerodrome Forecast
Issued by NWS Wilmington, OH

Current Version | Previous Version | Graphics & Text | Print | Product List | Glossary On
Versions: 1 2 3 4 5 6 7 8 9 10 11 12 13 14 15 16 17
000
FTUS41 KILN 171100
TAFILN
TAF
KILN 171135Z 1712/1812 VRB03KT P6SM OVC035
      TEMPO 1712/1714 OVC028
     FM171500 VRB03KT P6SM BKN040
     FM171800 26004KT P6SM SCT040 BKN120
     FM172300 35004KT P6SM BKN100
     FM180600 02004KT P6SM SCT100
     FM180900 04007KT 3SM BR SCT040=

USA.gov is the U.S. government's official web portal to all federal, state and local government web resources and services.